Weather at Kȩtrzyn-Wilamowo Airport

Public forecast

Using degrees Celsius for public forecast. Weather courtesy of forecast.io.

Closest aviation weather report (METAR) to Kȩtrzyn-Wilamowo Airport

Closest report is Olsztyn-Mazury Airport, 38.0 nm (70.4 km) SSW.

2022/12/01 23:30 (retrieved 14 minutes ago)

EPSY 012330Z 12004KT 9999 OVC013 M02/M05 Q1029

Closest aviation forecast (TAF) to Kȩtrzyn-Wilamowo Airport

Closest forecast is Khrabrovo Airport, 58.7 nm (108.6 km) NNW.

2022/12/01 21:22 (retrieved 2 hours ago)

TAF UMKK 011958Z 0121/0221 10003G08MPS 6000 FEW003 BKN011 TEMPO 0121/0209 BKN005